createdAt,value
2023-05-13T00:00:30.020Z,101180.25
2023-05-13T00:02:56.615Z,101172.41
2023-05-13T00:05:23.180Z,101177.94
2023-05-13T00:07:49.604Z,101174.56
2023-05-13T00:10:16.583Z,101177.53
2023-05-13T00:12:43.787Z,101175.84
2023-05-13T00:15:10.679Z,101178.84
2023-05-13T00:17:37.302Z,101176.28
2023-05-13T00:20:04.313Z,101173.53
2023-05-13T00:22:30.782Z,101176.75
2023-05-13T00:24:57.214Z,101175.03
2023-05-13T00:27:23.649Z,101178.66
2023-05-13T00:29:50.051Z,101180.56
2023-05-13T00:32:16.469Z,101182.72
2023-05-13T00:34:42.902Z,101179.97
2023-05-13T00:37:10.488Z,101179.31
2023-05-13T00:39:36.896Z,101177.88
2023-05-13T00:42:06.368Z,101179.56
2023-05-13T00:44:32.806Z,101188.06
2023-05-13T00:46:59.522Z,101184.47
2023-05-13T00:49:25.921Z,101185.31
2023-05-13T00:51:55.091Z,101185.31
2023-05-13T00:54:21.613Z,101182.78
2023-05-13T00:56:48.147Z,101185.75
2023-05-13T00:59:14.561Z,101191.53
2023-05-13T01:01:52.746Z,101189.81
2023-05-13T01:04:44.420Z,101189.19
2023-05-13T01:07:26.243Z,101194.72
2023-05-13T01:10:19.407Z,101193.03
2023-05-13T01:12:48.628Z,101189.44
2023-05-13T01:15:25.230Z,101193.25
2023-05-13T01:18:07.510Z,101190.09
2023-05-13T01:20:35.200Z,101194.97
2023-05-13T01:25:55.186Z,101193.94
2023-05-13T01:28:21.740Z,101197.75
2023-05-13T01:30:49.224Z,101194.84
2023-05-13T01:33:17.878Z,101195.88
2023-05-13T01:35:46.453Z,101189.09
2023-05-13T01:38:15.365Z,101194.63
2023-05-13T01:40:42.598Z,101186.34
2023-05-13T01:43:09.048Z,101191.88
2023-05-13T01:45:35.523Z,101190.63
2023-05-13T01:48:02.037Z,101192.78
2023-05-13T01:50:28.521Z,101188.09
2023-05-13T01:52:54.996Z,101189.81
2023-05-13T01:55:21.446Z,101188.50
2023-05-13T01:57:48.303Z,101184.47
2023-05-13T02:00:15.367Z,101193.38
2023-05-13T02:02:41.937Z,101188.09
2023-05-13T02:05:08.812Z,101186.16
2023-05-13T02:07:35.579Z,101189.81
2023-05-13T02:10:02.035Z,101191.09
2023-05-13T02:12:28.882Z,101187.94
2023-05-13T02:14:55.449Z,101191.16
2023-05-13T02:17:22.512Z,101191.56
2023-05-13T02:19:49.154Z,101193.72
2023-05-13T02:22:15.639Z,101194.16
2023-05-13T02:24:42.089Z,101193.09
2023-05-13T02:27:08.558Z,101197.34
2023-05-13T02:29:35.070Z,101199.28
2023-05-13T02:32:01.535Z,101191.84
2023-05-13T02:34:27.936Z,101187.00
2023-05-13T02:36:54.357Z,101190.41
2023-05-13T02:39:20.966Z,101182.31
2023-05-13T02:41:47.357Z,101188.69
2023-05-13T02:44:13.777Z,101188.91
2023-05-13T02:46:40.218Z,101189.16
2023-05-13T02:49:06.667Z,101190.44
2023-05-13T02:51:33.093Z,101193.84
2023-05-13T02:53:59.515Z,101186.63
2023-05-13T02:56:26.251Z,101188.31
2023-05-13T02:58:52.722Z,101177.03
2023-05-13T03:01:19.245Z,101171.31
2023-05-13T03:03:45.772Z,101169.59
2023-05-13T03:06:12.308Z,101166.19
2023-05-13T03:08:38.856Z,101167.91
2023-05-13T03:11:05.471Z,101169.56
2023-05-13T03:13:31.919Z,101165.13
2023-05-13T03:15:58.406Z,101170.88
2023-05-13T03:18:24.920Z,101170.47
2023-05-13T03:20:51.337Z,101172.81
2023-05-13T03:23:17.774Z,101171.34
2023-05-13T03:25:44.224Z,101175.16
2023-05-13T03:28:10.714Z,101180.69
2023-05-13T03:30:37.192Z,101177.91
2023-05-13T03:33:03.635Z,101178.97
2023-05-13T03:35:30.234Z,101174.31
2023-05-13T03:37:56.636Z,101174.31
2023-05-13T03:40:23.306Z,101176.88
2023-05-13T03:42:49.833Z,101174.53
2023-05-13T03:45:16.303Z,101173.91
2023-05-13T03:47:42.795Z,101173.03
2023-05-13T03:50:09.745Z,101172.19
2023-05-13T03:52:36.140Z,101176.25
2023-05-13T03:55:02.850Z,101179.22
2023-05-13T03:57:29.297Z,101179.44
2023-05-13T03:59:55.712Z,101173.06
2023-05-13T04:02:24.035Z,101176.03
2023-05-13T04:04:50.671Z,101165.84
2023-05-13T04:07:17.144Z,101169.69
2023-05-13T04:09:43.542Z,101173.72
2023-05-13T04:12:09.910Z,101172.25
2023-05-13T04:14:36.772Z,101173.94
2023-05-13T04:17:03.276Z,101172.44
2023-05-13T04:19:29.758Z,101177.78
2023-05-13T04:21:56.318Z,101179.47
2023-05-13T04:24:22.724Z,101181.13
2023-05-13T04:26:49.132Z,101182.41
2023-05-13T04:29:17.915Z,101181.78
2023-05-13T04:31:44.901Z,101186.66
2023-05-13T04:34:11.403Z,101174.78
2023-05-13T04:36:37.934Z,101189.63
2023-05-13T04:39:04.457Z,101193.44
2023-05-13T04:41:30.887Z,101205.34
2023-05-13T04:43:57.254Z,101206.81
2023-05-13T04:46:23.958Z,101211.28
2023-05-13T04:48:50.779Z,101222.75
2023-05-13T04:51:17.600Z,101218.06
2023-05-13T04:53:44.434Z,101217.44
2023-05-13T04:56:10.877Z,101219.75
2023-05-13T04:58:37.298Z,101207.41
2023-05-13T05:01:03.738Z,101211.88
2023-05-13T05:03:30.272Z,101216.34
2023-05-13T05:05:56.725Z,101216.97
2023-05-13T05:08:23.149Z,101218.47
2023-05-13T05:10:49.587Z,101208.25
2023-05-13T05:13:16.047Z,101210.59
2023-05-13T05:15:42.445Z,101220.13
2023-05-13T05:18:09.897Z,101217.38
2023-05-13T05:20:37.989Z,101230.75
2023-05-13T05:23:04.656Z,101234.53
2023-05-13T05:25:31.158Z,101227.75
2023-05-13T05:27:58.094Z,101228.97
2023-05-13T05:30:24.784Z,101228.56
2023-05-13T05:32:51.524Z,101233.66
2023-05-13T05:35:19.783Z,101231.06
2023-05-13T05:37:46.290Z,101239.13
2023-05-13T05:40:13.204Z,101243.16
2023-05-13T05:42:39.655Z,101255.22
2023-05-13T05:45:06.520Z,101261.16
2023-05-13T05:47:32.968Z,101256.28
2023-05-13T05:49:59.721Z,101245.63
2023-05-13T05:52:26.178Z,101246.25
2023-05-13T05:54:52.564Z,101256.03
2023-05-13T05:57:18.962Z,101251.97
2023-05-13T05:59:45.416Z,101255.81
2023-05-13T06:02:11.997Z,101252.59
2023-05-13T06:04:38.515Z,101253.84
2023-05-13T06:07:05.282Z,101259.81
2023-05-13T06:09:31.707Z,101260.00
2023-05-13T06:11:58.095Z,101259.13
2023-05-13T06:14:24.505Z,101263.53
2023-05-13T06:16:51.317Z,101256.94
2023-05-13T06:19:18.630Z,101257.34
2023-05-13T06:21:45.119Z,101265.69
2023-05-13T06:24:11.557Z,101267.81
2023-05-13T06:26:37.960Z,101267.00
2023-05-13T06:29:04.416Z,101267.41
2023-05-13T06:31:30.871Z,101269.47
2023-05-13T06:33:57.349Z,101263.13
2023-05-13T06:36:23.730Z,101256.50
2023-05-13T06:38:50.172Z,101262.63
2023-05-13T06:41:16.609Z,101267.22
2023-05-13T06:43:45.567Z,101266.31
2023-05-13T06:46:12.867Z,101264.13
2023-05-13T06:48:39.286Z,101267.06
2023-05-13T06:51:05.896Z,101261.91
2023-05-13T06:53:32.350Z,101254.78
2023-05-13T06:55:58.706Z,101259.59
2023-05-13T06:58:25.307Z,101260.34
2023-05-13T07:00:51.874Z,101259.59
2023-05-13T07:03:18.282Z,101258.44
2023-05-13T07:05:44.836Z,101258.63
2023-05-13T07:08:17.230Z,101255.25
2023-05-13T07:10:43.887Z,101258.16
2023-05-13T07:13:11.209Z,101260.50
2023-05-13T07:15:37.671Z,101258.09
2023-05-13T07:18:04.317Z,101248.25
2023-05-13T07:20:31.404Z,101244.56
2023-05-13T07:22:57.990Z,101244.72
2023-05-13T07:25:24.627Z,101239.31
2023-05-13T07:27:51.038Z,101245.78
2023-05-13T07:30:17.464Z,101246.66
2023-05-13T07:32:44.260Z,101248.09
2023-05-13T07:35:11.129Z,101261.00
2023-05-13T07:37:37.540Z,101252.88
2023-05-13T07:40:05.909Z,101244.72
2023-05-13T07:42:32.793Z,101252.09
2023-05-13T07:44:59.220Z,101247.03
2023-05-13T07:47:27.633Z,101242.94
2023-05-13T07:49:54.102Z,101247.69
2023-05-13T07:52:20.600Z,101241.00
2023-05-13T07:54:46.952Z,101241.53
2023-05-13T07:57:13.450Z,101240.59
2023-05-13T07:59:39.847Z,101241.72
2023-05-13T08:02:06.905Z,101236.91
2023-05-13T08:04:33.820Z,101246.47
2023-05-13T08:07:03.720Z,101242.78
2023-05-13T08:09:30.258Z,101241.34
2023-05-13T08:11:56.756Z,101241.84
2023-05-13T08:14:23.318Z,101233.44
2023-05-13T08:16:49.792Z,101234.56
2023-05-13T08:19:16.653Z,101239.13
2023-05-13T08:21:43.334Z,101239.91
2023-05-13T08:24:09.770Z,101236.75
2023-05-13T08:26:37.372Z,101240.03
2023-05-13T08:29:03.877Z,101237.41
2023-05-13T08:31:31.998Z,101233.16
2023-05-13T08:33:58.429Z,101231.09
2023-05-13T08:36:26.427Z,101229.66
2023-05-13T08:38:53.100Z,101225.75
2023-05-13T08:41:21.921Z,101233.88
2023-05-13T08:43:49.824Z,101230.75
2023-05-13T08:46:18.477Z,101230.47
2023-05-13T08:48:45.752Z,101227.66
2023-05-13T08:51:12.839Z,101222.91
2023-05-13T08:53:40.732Z,101222.50
2023-05-13T08:56:09.299Z,101218.56
2023-05-13T08:58:35.892Z,101218.53
2023-05-13T09:01:04.003Z,101216.94
2023-05-13T09:03:31.565Z,101218.53
2023-05-13T09:06:01.477Z,101222.88
2023-05-13T09:08:28.018Z,101203.59
2023-05-13T09:10:54.761Z,101209.16
2023-05-13T09:13:21.815Z,101204.41
2023-05-13T09:15:50.433Z,101209.06
2023-05-13T09:18:18.693Z,101199.00
2023-05-13T09:20:45.510Z,101202.63
2023-05-13T09:23:13.276Z,101197.06
2023-05-13T09:25:40.034Z,101194.81
2023-05-13T09:28:08.001Z,101200.63
2023-05-13T09:30:38.637Z,101198.56
2023-05-13T09:33:11.308Z,101194.53
2023-05-13T09:35:40.365Z,101183.81
2023-05-13T09:38:19.627Z,101181.13
2023-05-13T09:40:57.328Z,101184.63
2023-05-13T09:43:26.845Z,101186.91
2023-05-13T09:45:58.106Z,101177.28
2023-05-13T09:48:26.326Z,101179.41
2023-05-13T09:50:53.560Z,101180.09
2023-05-13T09:53:21.188Z,101173.50
2023-05-13T09:55:49.243Z,101168.81
2023-05-13T09:58:15.908Z,101158.78
2023-05-13T10:00:43.957Z,101164.66
2023-05-13T10:03:11.833Z,101159.03
2023-05-13T10:05:41.693Z,101160.97
2023-05-13T10:08:10.521Z,101157.84
2023-05-13T10:10:37.083Z,101165.09
2023-05-13T10:13:06.723Z,101163.94
2023-05-13T10:15:34.722Z,101155.81
2023-05-13T10:18:02.166Z,101150.22
2023-05-13T10:20:28.708Z,101157.72
2023-05-13T10:22:55.703Z,101142.63
2023-05-13T10:25:22.465Z,101146.28
2023-05-13T10:27:51.020Z,101146.03
2023-05-13T10:30:17.858Z,101160.53
2023-05-13T10:32:44.508Z,101150.16
2023-05-13T10:35:13.874Z,101154.88
2023-05-13T10:37:56.416Z,101148.09
2023-05-13T10:40:34.094Z,101140.22
2023-05-13T10:43:17.087Z,101140.72
2023-05-13T10:45:51.819Z,101149.09
2023-05-13T10:48:18.864Z,101143.03
2023-05-13T10:50:55.787Z,101145.59
2023-05-13T10:53:24.801Z,101138.59
2023-05-13T10:55:56.752Z,101145.31
2023-05-13T10:58:31.595Z,101147.53
2023-05-13T11:01:18.633Z,101146.69
2023-05-13T11:04:00.524Z,101154.22
2023-05-13T11:06:39.321Z,101160.41
2023-05-13T11:09:07.526Z,101165.66
2023-05-13T11:11:35.733Z,101147.97
2023-05-13T11:14:18.526Z,101131.13
2023-05-13T11:16:47.053Z,101132.84
2023-05-13T11:19:27.682Z,101134.25
2023-05-13T11:22:04.204Z,101113.44
2023-05-13T11:24:30.958Z,101120.50
2023-05-13T11:26:59.240Z,101122.06
2023-05-13T11:29:29.827Z,101133.47
2023-05-13T11:32:00.246Z,101128.88
2023-05-13T11:34:27.276Z,101131.69
2023-05-13T11:37:07.186Z,101129.47
2023-05-13T11:39:33.735Z,101127.25
2023-05-13T11:42:05.010Z,101132.81
2023-05-13T11:44:31.478Z,101137.88
2023-05-13T11:47:00.181Z,101146.56
2023-05-13T11:49:34.823Z,101158.59
2023-05-13T11:52:02.874Z,101145.69
2023-05-13T11:54:29.505Z,101165.75
2023-05-13T11:56:56.426Z,101164.06
2023-05-13T11:59:23.258Z,101169.84
2023-05-13T12:02:00.559Z,101167.53
2023-05-13T12:04:29.309Z,101181.00
2023-05-13T12:06:56.131Z,101176.53
2023-05-13T12:09:25.741Z,101176.47
2023-05-13T12:11:52.998Z,101194.97
2023-05-13T12:14:22.734Z,101193.06
2023-05-13T12:16:50.416Z,101207.66
2023-05-13T12:19:16.884Z,101196.47
2023-05-13T12:21:43.332Z,101194.97
2023-05-13T12:24:20.897Z,101192.13
2023-05-13T12:26:48.349Z,101196.47
2023-05-13T12:29:14.749Z,101190.34
2023-05-13T12:31:43.092Z,101193.81
2023-05-13T12:34:10.571Z,101184.19
2023-05-13T12:36:38.364Z,101197.38
2023-05-13T12:39:06.332Z,101204.81
2023-05-13T12:41:50.652Z,101196.63
2023-05-13T12:44:17.119Z,101225.53
2023-05-13T12:46:57.788Z,101234.81
2023-05-13T12:49:24.461Z,101226.13
2023-05-13T12:51:55.657Z,101222.75
2023-05-13T12:54:22.153Z,101228.66
2023-05-13T12:56:48.608Z,101226.13
2023-05-13T12:59:15.732Z,101237.16
2023-05-13T13:01:42.899Z,101216.59
2023-05-13T13:04:09.611Z,101229.41
2023-05-13T13:06:36.117Z,101218.97
2023-05-13T13:09:02.575Z,101222.25
2023-05-13T13:11:29.910Z,101211.31
2023-05-13T13:13:56.454Z,101215.56
2023-05-13T13:16:23.166Z,101206.50
2023-05-13T13:18:53.209Z,101199.41
2023-05-13T13:21:21.361Z,101192.50
2023-05-13T13:23:47.748Z,101202.19
2023-05-13T13:26:14.172Z,101184.00
2023-05-13T13:28:40.678Z,101183.50
2023-05-13T13:31:07.850Z,101184.69
2023-05-13T13:33:34.379Z,101157.78
2023-05-13T13:36:00.805Z,101148.41
2023-05-13T13:38:27.212Z,101159.56
2023-05-13T13:40:53.574Z,101153.13
2023-05-13T13:43:20.035Z,101145.25
2023-05-13T13:45:46.428Z,101148.69
2023-05-13T13:48:13.417Z,101146.78
2023-05-13T13:50:39.832Z,101152.16
2023-05-13T13:53:06.375Z,101142.41
2023-05-13T13:55:32.815Z,101142.13
2023-05-13T13:57:59.229Z,101130.75
2023-05-13T14:00:26.267Z,101129.72
2023-05-13T14:02:52.773Z,101121.63
2023-05-13T14:05:19.519Z,101122.47
2023-05-13T14:07:48.365Z,101124.97
2023-05-13T14:10:14.934Z,101117.69
2023-05-13T14:12:41.346Z,101114.22
2023-05-13T14:15:08.169Z,101113.00
2023-05-13T14:17:34.637Z,101111.69
2023-05-13T14:20:01.088Z,101119.88
2023-05-13T14:22:27.604Z,101117.31
2023-05-13T14:24:54.138Z,101119.53
2023-05-13T14:27:21.750Z,101123.19
2023-05-13T14:29:48.921Z,101137.91
2023-05-13T14:32:15.722Z,101135.81
2023-05-13T14:34:42.806Z,101148.97
2023-05-13T14:37:09.253Z,101150.00
2023-05-13T14:39:35.818Z,101151.09
2023-05-13T14:42:02.510Z,101137.81
2023-05-13T14:44:28.885Z,101139.56
2023-05-13T14:46:56.023Z,101137.84
2023-05-13T14:49:22.491Z,101147.94
2023-05-13T14:51:48.901Z,101140.94
2023-05-13T14:54:15.538Z,101147.94
2023-05-13T14:56:42.053Z,101144.03
2023-05-13T14:59:08.543Z,101135.63
2023-05-13T15:01:35.250Z,101123.84
2023-05-13T15:04:01.918Z,101116.28
2023-05-13T15:06:29.169Z,101108.16
2023-05-13T15:08:56.298Z,101102.03
2023-05-13T15:11:23.234Z,101099.75
2023-05-13T15:13:49.690Z,101096.94
2023-05-13T15:16:16.188Z,101094.66
2023-05-13T15:18:42.776Z,101100.84
2023-05-13T15:21:09.397Z,101112.91
2023-05-13T15:23:35.916Z,101123.84
2023-05-13T15:26:02.372Z,101113.22
2023-05-13T15:28:29.143Z,101127.78
2023-05-13T15:30:56.157Z,101127.50
2023-05-13T15:33:22.738Z,101122.75
2023-05-13T15:35:49.254Z,101139.53
2023-05-13T15:38:15.848Z,101138.69
2023-05-13T15:40:42.474Z,101129.47
2023-05-13T15:43:08.930Z,101110.41
2023-05-13T15:45:35.433Z,101117.41
2023-05-13T15:48:01.966Z,101100.53
2023-05-13T15:50:28.474Z,101096.84
2023-05-13T15:52:55.353Z,101103.50
2023-05-13T15:55:22.097Z,101101.78
2023-05-13T15:57:50.332Z,101103.69
2023-05-13T16:00:17.991Z,101104.13
2023-05-13T16:02:44.498Z,101102.06
2023-05-13T16:05:19.029Z,101103.44
2023-05-13T16:07:45.564Z,101088.50
2023-05-13T16:10:11.990Z,101100.47
2023-05-13T16:12:38.898Z,101101.28
2023-05-13T16:15:06.362Z,101101.25
2023-05-13T16:17:33.222Z,101098.94
2023-05-13T16:19:59.960Z,101105.63
2023-05-13T16:22:33.785Z,101101.69
2023-05-13T16:25:01.944Z,101095.13
2023-05-13T16:27:29.237Z,101090.06
2023-05-13T16:29:56.478Z,101096.81
2023-05-13T16:32:23.027Z,101089.34
2023-05-13T16:34:49.469Z,101081.63
2023-05-13T16:37:16.207Z,101083.66
2023-05-13T16:39:42.959Z,101076.97
2023-05-13T16:42:09.684Z,101068.34
2023-05-13T16:44:36.238Z,101059.72
2023-05-13T16:47:02.799Z,101064.16
2023-05-13T16:49:29.262Z,101056.88
2023-05-13T16:51:55.631Z,101049.06
2023-05-13T16:54:22.142Z,101054.13
2023-05-13T16:56:50.366Z,101054.63
2023-05-13T16:59:24.562Z,101053.50
2023-05-13T17:01:52.304Z,101057.66
2023-05-13T17:04:19.321Z,101052.56
2023-05-13T17:06:45.687Z,101055.66
2023-05-13T17:09:12.293Z,101055.66
2023-05-13T17:11:39.070Z,101048.94
2023-05-13T17:14:06.038Z,101054.00
2023-05-13T17:16:32.760Z,101052.06
2023-05-13T17:18:59.666Z,101053.16
2023-05-13T17:21:26.383Z,101050.41
2023-05-13T17:23:52.908Z,101046.75
2023-05-13T17:26:21.894Z,101052.94
2023-05-13T17:28:49.542Z,101054.59
2023-05-13T17:31:16.191Z,101056.28
2023-05-13T17:33:42.707Z,101048.50
2023-05-13T17:36:09.358Z,101054.09
2023-05-13T17:38:35.919Z,101051.25
2023-05-13T17:41:02.501Z,101047.06
2023-05-13T17:43:28.980Z,101042.28
2023-05-13T17:45:55.425Z,101036.13
2023-05-13T17:48:22.054Z,101038.38
2023-05-13T17:50:48.691Z,101037.50
2023-05-13T17:53:15.122Z,101050.03
2023-05-13T17:55:41.569Z,101051.38
2023-05-13T17:58:08.022Z,101053.84
2023-05-13T18:00:34.524Z,101051.28
2023-05-13T18:03:01.003Z,101050.34
2023-05-13T18:05:27.651Z,101053.56
2023-05-13T18:07:54.162Z,101059.63
2023-05-13T18:10:20.985Z,101063.44
2023-05-13T18:12:47.724Z,101066.09
2023-05-13T18:15:14.193Z,101068.25
2023-05-13T18:17:40.869Z,101090.75
2023-05-13T18:20:08.049Z,101113.28
2023-05-13T18:22:35.015Z,101129.28
2023-05-13T18:25:01.477Z,101135.72
2023-05-13T18:27:27.883Z,101136.25
2023-05-13T18:29:54.328Z,101131.66
2023-05-13T18:32:20.841Z,101139.34
2023-05-13T18:34:47.371Z,101148.75
2023-05-13T18:37:15.018Z,101136.34
2023-05-13T18:39:42.053Z,101134.59
2023-05-13T18:42:08.446Z,101146.50
2023-05-13T18:44:35.170Z,101124.41
2023-05-13T18:47:01.596Z,101123.81
2023-05-13T18:49:28.308Z,101138.59
2023-05-13T18:51:55.292Z,101132.69
2023-05-13T18:54:21.817Z,101124.22
2023-05-13T18:56:48.552Z,101123.56
2023-05-13T18:59:14.926Z,101122.91
2023-05-13T19:01:42.284Z,101117.75
2023-05-13T19:04:08.988Z,101113.78
2023-05-13T19:06:37.911Z,101121.72
2023-05-13T19:09:05.038Z,101120.19
2023-05-13T19:11:32.122Z,101121.69
2023-05-13T19:13:58.517Z,101122.03
2023-05-13T19:16:25.496Z,101127.09
2023-05-13T19:18:51.995Z,101132.09
2023-05-13T19:21:18.447Z,101147.31
2023-05-13T19:23:44.981Z,101141.78
2023-05-13T19:26:11.381Z,101143.47
2023-05-13T19:28:38.391Z,101142.03
2023-05-13T19:31:05.904Z,101145.69
2023-05-13T19:33:32.467Z,101141.59
2023-05-13T19:35:58.908Z,101139.91
2023-05-13T19:38:25.353Z,101148.25
2023-05-13T19:40:53.106Z,101153.56
2023-05-13T19:43:19.621Z,101149.34
2023-05-13T19:45:46.118Z,101155.16
2023-05-13T19:48:13.209Z,101154.72
2023-05-13T19:50:39.751Z,101153.00
2023-05-13T19:53:06.105Z,101149.59
2023-05-13T19:55:32.518Z,101165.94
2023-05-13T19:57:58.947Z,101161.44
2023-05-13T20:00:25.642Z,101163.69
2023-05-13T20:02:52.296Z,101157.88
2023-05-13T20:05:18.888Z,101168.19
2023-05-13T20:07:45.332Z,101160.19
2023-05-13T20:10:11.828Z,101170.75
2023-05-13T20:12:38.220Z,101170.81
2023-05-13T20:15:05.200Z,101175.34
2023-05-13T20:17:31.781Z,101168.19
2023-05-13T20:19:58.389Z,101171.88
2023-05-13T20:22:24.824Z,101170.25
2023-05-13T20:24:52.073Z,101169.72
2023-05-13T20:27:18.607Z,101174.91
2023-05-13T20:29:47.130Z,101182.22
2023-05-13T20:32:18.365Z,101178.44
2023-05-13T20:34:44.758Z,101177.66
2023-05-13T20:37:11.250Z,101178.34
2023-05-13T20:39:37.657Z,101182.84
2023-05-13T20:42:04.200Z,101183.31
2023-05-13T20:44:31.006Z,101188.47
2023-05-13T20:46:57.393Z,101186.81
2023-05-13T20:49:23.814Z,101184.25
2023-05-13T20:51:50.747Z,101189.25
2023-05-13T20:54:17.178Z,101188.44
2023-05-13T20:56:43.850Z,101196.09
2023-05-13T20:59:10.357Z,101199.31
2023-05-13T21:01:36.852Z,101184.84
2023-05-13T21:04:05.815Z,101193.16
2023-05-13T21:06:35.616Z,101187.22
2023-05-13T21:09:01.981Z,101191.28
2023-05-13T21:11:28.384Z,101191.94
2023-05-13T21:13:54.769Z,101191.34
2023-05-13T21:16:21.265Z,101196.03
2023-05-13T21:18:47.814Z,101193.94
2023-05-13T21:21:14.231Z,101196.28
2023-05-13T21:23:43.400Z,101193.97
2023-05-13T21:26:10.779Z,101192.50
2023-05-13T21:28:37.580Z,101191.88
2023-05-13T21:31:04.173Z,101205.06
2023-05-13T21:33:31.023Z,101194.69
2023-05-13T21:35:57.422Z,101192.13
2023-05-13T21:38:23.811Z,101192.78
2023-05-13T21:40:50.233Z,101199.41
2023-05-13T21:43:16.623Z,101194.06
2023-05-13T21:45:43.061Z,101198.34
2023-05-13T21:48:09.581Z,101199.63
2023-05-13T21:50:36.041Z,101197.09
2023-05-13T21:53:02.540Z,101204.75
2023-05-13T21:55:28.990Z,101199.69
2023-05-13T21:57:55.436Z,101198.41
2023-05-13T22:00:22.069Z,101199.06
2023-05-13T22:02:50.875Z,101202.88
2023-05-13T22:05:17.606Z,101199.72
2023-05-13T22:07:44.044Z,101206.13
2023-05-13T22:10:11.502Z,101205.72
2023-05-13T22:12:37.957Z,101200.84
2023-05-13T22:15:04.845Z,101204.47
2023-05-13T22:17:31.316Z,101196.63
2023-05-13T22:19:57.877Z,101202.56
2023-05-13T22:22:24.353Z,101202.38
2023-05-13T22:24:50.746Z,101202.59
2023-05-13T22:27:17.226Z,101206.19
2023-05-13T22:29:43.618Z,101195.16
2023-05-13T22:32:10.162Z,101200.06
2023-05-13T22:34:36.635Z,101199.84
2023-05-13T22:37:03.101Z,101198.78
2023-05-13T22:39:29.543Z,101191.78
2023-05-13T22:41:55.981Z,101212.59
2023-05-13T22:44:22.954Z,101203.06
2023-05-13T22:46:49.512Z,101199.66
2023-05-13T22:49:15.965Z,101198.19
2023-05-13T22:51:42.975Z,101205.38
2023-05-13T22:54:09.394Z,101200.09
2023-05-13T22:56:35.794Z,101190.13
2023-05-13T22:59:02.237Z,101194.59
2023-05-13T23:01:28.695Z,101190.56
2023-05-13T23:03:55.203Z,101190.13
2023-05-13T23:06:21.658Z,101184.41
2023-05-13T23:08:48.279Z,101181.22
2023-05-13T23:11:14.710Z,101184.59
2023-05-13T23:13:41.317Z,101169.75
2023-05-13T23:16:07.761Z,101185.03
2023-05-13T23:18:34.358Z,101186.31
2023-05-13T23:21:01.480Z,101182.28
2023-05-13T23:23:27.951Z,101185.66
2023-05-13T23:25:54.358Z,101182.50
2023-05-13T23:28:20.745Z,101184.81
2023-05-13T23:30:47.108Z,101179.50
2023-05-13T23:33:13.572Z,101179.09
2023-05-13T23:35:39.949Z,101178.47
2023-05-13T23:38:06.364Z,101165.09
2023-05-13T23:40:32.766Z,101158.31
2023-05-13T23:42:59.498Z,101164.88
2023-05-13T23:45:26.060Z,101162.56
2023-05-13T23:47:52.613Z,101160.00
2023-05-13T23:50:19.218Z,101154.06
2023-05-13T23:52:45.691Z,101156.59
2023-05-13T23:55:12.221Z,101161.91
2023-05-13T23:57:38.665Z,101157.44
